sensor_id;sensor_type;location;lat;lon;timestamp;P1;durP1;ratioP1;P2;durP2;ratioP2
41643;SDS011;44236;48.098;11.582;2023-05-15T00:02:07;2.13;;;1.20;;
41643;SDS011;44236;48.098;11.582;2023-05-15T00:04:32;2.75;;;1.48;;
41643;SDS011;44236;48.098;11.582;2023-05-15T00:06:58;2.28;;;1.33;;
41643;SDS011;44236;48.098;11.582;2023-05-15T00:09:23;2.25;;;1.38;;
41643;SDS011;44236;48.098;11.582;2023-05-15T00:11:49;3.13;;;1.40;;
41643;SDS011;44236;48.098;11.582;2023-05-15T00:14:15;2.20;;;1.17;;
41643;SDS011;44236;48.098;11.582;2023-05-15T00:16:40;2.50;;;1.30;;
41643;SDS011;44236;48.098;11.582;2023-05-15T00:19:06;2.22;;;1.15;;
41643;SDS011;44236;48.098;11.582;2023-05-15T00:21:32;2.65;;;1.30;;
41643;SDS011;44236;48.098;11.582;2023-05-15T00:23:57;1.58;;;1.10;;
41643;SDS011;44236;48.098;11.582;2023-05-15T00:26:23;2.08;;;1.10;;
41643;SDS011;44236;48.098;11.582;2023-05-15T00:28:49;2.72;;;1.17;;
41643;SDS011;44236;48.098;11.582;2023-05-15T00:31:15;1.75;;;1.20;;
41643;SDS011;44236;48.098;11.582;2023-05-15T00:33:41;2.08;;;1.27;;
41643;SDS011;44236;48.098;11.582;2023-05-15T00:36:07;2.08;;;1.20;;
41643;SDS011;44236;48.098;11.582;2023-05-15T00:38:33;2.13;;;1.20;;
41643;SDS011;44236;48.098;11.582;2023-05-15T00:40:59;1.98;;;1.20;;
41643;SDS011;44236;48.098;11.582;2023-05-15T00:43:25;2.90;;;1.30;;
41643;SDS011;44236;48.098;11.582;2023-05-15T00:45:52;2.88;;;1.60;;
41643;SDS011;44236;48.098;11.582;2023-05-15T00:48:18;1.67;;;1.30;;
41643;SDS011;44236;48.098;11.582;2023-05-15T00:50:47;1.70;;;1.13;;
41643;SDS011;44236;48.098;11.582;2023-05-15T00:53:15;3.72;;;1.20;;
41643;SDS011;44236;48.098;11.582;2023-05-15T00:55:41;1.85;;;1.00;;
41643;SDS011;44236;48.098;11.582;2023-05-15T00:58:09;2.25;;;0.90;;
41643;SDS011;44236;48.098;11.582;2023-05-15T01:00:36;1.85;;;1.20;;
41643;SDS011;44236;48.098;11.582;2023-05-15T01:03:03;2.20;;;1.13;;
41643;SDS011;44236;48.098;11.582;2023-05-15T01:05:29;1.90;;;1.15;;
41643;SDS011;44236;48.098;11.582;2023-05-15T01:08:00;3.90;;;1.30;;
41643;SDS011;44236;48.098;11.582;2023-05-15T01:10:50;2.13;;;1.25;;
41643;SDS011;44236;48.098;11.582;2023-05-15T01:13:17;2.05;;;1.25;;
41643;SDS011;44236;48.098;11.582;2023-05-15T01:15:45;3.28;;;1.00;;
41643;SDS011;44236;48.098;11.582;2023-05-15T01:18:11;1.73;;;1.10;;
41643;SDS011;44236;48.098;11.582;2023-05-15T01:20:49;3.10;;;1.30;;
41643;SDS011;44236;48.098;11.582;2023-05-15T01:23:38;2.60;;;1.27;;
41643;SDS011;44236;48.098;11.582;2023-05-15T01:29:13;2.85;;;1.10;;
41643;SDS011;44236;48.098;11.582;2023-05-15T01:31:43;2.63;;;1.38;;
41643;SDS011;44236;48.098;11.582;2023-05-15T01:34:13;2.15;;;1.40;;
41643;SDS011;44236;48.098;11.582;2023-05-15T01:36:47;2.42;;;1.38;;
41643;SDS011;44236;48.098;11.582;2023-05-15T01:39:19;2.13;;;1.35;;
41643;SDS011;44236;48.098;11.582;2023-05-15T01:41:51;1.85;;;1.17;;
41643;SDS011;44236;48.098;11.582;2023-05-15T01:46:55;2.80;;;1.40;;
41643;SDS011;44236;48.098;11.582;2023-05-15T01:49:23;2.33;;;1.60;;
41643;SDS011;44236;48.098;11.582;2023-05-15T01:51:54;3.90;;;1.40;;
41643;SDS011;44236;48.098;11.582;2023-05-15T01:54:26;2.03;;;1.20;;
41643;SDS011;44236;48.098;11.582;2023-05-15T01:56:53;2.33;;;1.30;;
41643;SDS011;44236;48.098;11.582;2023-05-15T01:59:21;5.25;;;1.70;;
41643;SDS011;44236;48.098;11.582;2023-05-15T02:01:47;8.23;;;1.30;;
41643;SDS011;44236;48.098;11.582;2023-05-15T02:04:14;2.33;;;1.40;;
41643;SDS011;44236;48.098;11.582;2023-05-15T02:06:41;3.10;;;1.38;;
41643;SDS011;44236;48.098;11.582;2023-05-15T02:09:08;2.20;;;1.10;;
41643;SDS011;44236;48.098;11.582;2023-05-15T02:11:35;2.50;;;1.40;;
41643;SDS011;44236;48.098;11.582;2023-05-15T02:14:01;4.13;;;1.33;;
41643;SDS011;44236;48.098;11.582;2023-05-15T02:16:29;2.25;;;1.40;;
41643;SDS011;44236;48.098;11.582;2023-05-15T02:18:54;1.95;;;1.10;;
41643;SDS011;44236;48.098;11.582;2023-05-15T02:21:20;1.77;;;1.23;;
41643;SDS011;44236;48.098;11.582;2023-05-15T02:23:46;3.42;;;1.20;;
41643;SDS011;44236;48.098;11.582;2023-05-15T02:28:54;2.60;;;1.25;;
41643;SDS011;44236;48.098;11.582;2023-05-15T02:32:12;2.35;;;1.40;;
41643;SDS011;44236;48.098;11.582;2023-05-15T02:37:09;2.50;;;1.48;;
41643;SDS011;44236;48.098;11.582;2023-05-15T02:39:37;2.33;;;1.30;;
41643;SDS011;44236;48.098;11.582;2023-05-15T02:42:06;1.85;;;1.20;;
41643;SDS011;44236;48.098;11.582;2023-05-15T02:44:34;3.95;;;1.40;;
41643;SDS011;44236;48.098;11.582;2023-05-15T02:47:01;3.78;;;1.58;;
41643;SDS011;44236;48.098;11.582;2023-05-15T02:49:28;2.03;;;1.20;;
41643;SDS011;44236;48.098;11.582;2023-05-15T02:51:53;2.67;;;1.50;;
41643;SDS011;44236;48.098;11.582;2023-05-15T02:54:19;1.98;;;1.38;;
41643;SDS011;44236;48.098;11.582;2023-05-15T02:56:45;2.28;;;1.48;;
41643;SDS011;44236;48.098;11.582;2023-05-15T02:59:11;3.60;;;1.45;;
41643;SDS011;44236;48.098;11.582;2023-05-15T03:01:42;2.28;;;1.48;;
41643;SDS011;44236;48.098;11.582;2023-05-15T03:04:08;1.98;;;1.40;;
41643;SDS011;44236;48.098;11.582;2023-05-15T03:06:34;2.15;;;1.25;;
41643;SDS011;44236;48.098;11.582;2023-05-15T03:08:59;2.20;;;1.20;;
41643;SDS011;44236;48.098;11.582;2023-05-15T03:11:25;2.13;;;1.33;;
41643;SDS011;44236;48.098;11.582;2023-05-15T03:13:51;1.48;;;1.10;;
41643;SDS011;44236;48.098;11.582;2023-05-15T03:16:16;2.70;;;1.50;;
41643;SDS011;44236;48.098;11.582;2023-05-15T03:18:42;2.05;;;1.33;;
41643;SDS011;44236;48.098;11.582;2023-05-15T03:21:07;2.30;;;1.33;;
41643;SDS011;44236;48.098;11.582;2023-05-15T03:23:33;2.25;;;1.17;;
41643;SDS011;44236;48.098;11.582;2023-05-15T03:25:59;1.67;;;1.10;;
41643;SDS011;44236;48.098;11.582;2023-05-15T03:28:24;3.38;;;1.45;;
41643;SDS011;44236;48.098;11.582;2023-05-15T03:30:50;2.47;;;1.50;;
41643;SDS011;44236;48.098;11.582;2023-05-15T03:33:15;3.60;;;1.20;;
41643;SDS011;44236;48.098;11.582;2023-05-15T03:35:41;2.33;;;1.13;;
41643;SDS011;44236;48.098;11.582;2023-05-15T03:38:06;2.35;;;1.30;;
41643;SDS011;44236;48.098;11.582;2023-05-15T03:40:32;2.42;;;1.55;;
41643;SDS011;44236;48.098;11.582;2023-05-15T03:42:58;1.60;;;1.13;;
41643;SDS011;44236;48.098;11.582;2023-05-15T03:45:23;1.90;;;1.15;;
41643;SDS011;44236;48.098;11.582;2023-05-15T03:47:49;2.53;;;1.40;;
41643;SDS011;44236;48.098;11.582;2023-05-15T03:50:14;1.98;;;1.23;;
41643;SDS011;44236;48.098;11.582;2023-05-15T03:52:40;1.50;;;1.00;;
41643;SDS011;44236;48.098;11.582;2023-05-15T03:55:06;1.88;;;1.40;;
41643;SDS011;44236;48.098;11.582;2023-05-15T03:57:32;1.88;;;1.27;;
41643;SDS011;44236;48.098;11.582;2023-05-15T03:59:59;2.70;;;1.27;;
41643;SDS011;44236;48.098;11.582;2023-05-15T04:02:27;1.90;;;1.08;;
41643;SDS011;44236;48.098;11.582;2023-05-15T04:04:53;1.88;;;1.10;;
41643;SDS011;44236;48.098;11.582;2023-05-15T04:07:19;2.33;;;1.55;;
41643;SDS011;44236;48.098;11.582;2023-05-15T04:09:44;3.13;;;1.15;;
41643;SDS011;44236;48.098;11.582;2023-05-15T04:12:10;1.55;;;1.10;;
41643;SDS011;44236;48.098;11.582;2023-05-15T04:14:35;2.13;;;0.93;;
41643;SDS011;44236;48.098;11.582;2023-05-15T04:17:01;2.28;;;1.33;;
41643;SDS011;44236;48.098;11.582;2023-05-15T04:19:27;3.08;;;1.45;;
41643;SDS011;44236;48.098;11.582;2023-05-15T04:21:52;2.30;;;1.38;;
41643;SDS011;44236;48.098;11.582;2023-05-15T04:24:18;1.63;;;1.33;;
41643;SDS011;44236;48.098;11.582;2023-05-15T04:26:43;1.90;;;1.20;;
41643;SDS011;44236;48.098;11.582;2023-05-15T04:29:09;3.55;;;1.40;;
41643;SDS011;44236;48.098;11.582;2023-05-15T04:31:35;1.55;;;1.02;;
41643;SDS011;44236;48.098;11.582;2023-05-15T04:34:02;1.85;;;1.38;;
41643;SDS011;44236;48.098;11.582;2023-05-15T04:36:29;2.63;;;1.50;;
41643;SDS011;44236;48.098;11.582;2023-05-15T04:38:55;1.88;;;1.15;;
41643;SDS011;44236;48.098;11.582;2023-05-15T04:41:20;1.95;;;1.20;;
41643;SDS011;44236;48.098;11.582;2023-05-15T04:43:46;1.67;;;1.10;;
41643;SDS011;44236;48.098;11.582;2023-05-15T04:46:11;2.20;;;1.20;;
41643;SDS011;44236;48.098;11.582;2023-05-15T04:48:37;3.17;;;1.20;;
41643;SDS011;44236;48.098;11.582;2023-05-15T04:51:03;1.27;;;0.88;;
41643;SDS011;44236;48.098;11.582;2023-05-15T04:53:28;2.03;;;1.00;;
41643;SDS011;44236;48.098;11.582;2023-05-15T04:55:54;2.22;;;1.02;;
41643;SDS011;44236;48.098;11.582;2023-05-15T04:58:20;1.67;;;1.10;;
41643;SDS011;44236;48.098;11.582;2023-05-15T05:00:45;5.43;;;1.20;;
41643;SDS011;44236;48.098;11.582;2023-05-15T05:03:11;3.42;;;1.17;;
41643;SDS011;44236;48.098;11.582;2023-05-15T05:05:36;2.03;;;1.13;;
41643;SDS011;44236;48.098;11.582;2023-05-15T05:08:02;1.73;;;1.10;;
41643;SDS011;44236;48.098;11.582;2023-05-15T05:10:27;3.15;;;1.20;;
41643;SDS011;44236;48.098;11.582;2023-05-15T05:12:53;1.40;;;0.82;;
41643;SDS011;44236;48.098;11.582;2023-05-15T05:15:19;2.40;;;1.25;;
41643;SDS011;44236;48.098;11.582;2023-05-15T05:17:45;3.47;;;1.63;;
41643;SDS011;44236;48.098;11.582;2023-05-15T05:20:10;1.65;;;0.90;;
41643;SDS011;44236;48.098;11.582;2023-05-15T05:22:37;2.97;;;1.63;;
41643;SDS011;44236;48.098;11.582;2023-05-15T05:25:04;2.25;;;1.48;;
41643;SDS011;44236;48.098;11.582;2023-05-15T05:27:30;2.70;;;1.50;;
41643;SDS011;44236;48.098;11.582;2023-05-15T05:29:56;1.88;;;1.15;;
41643;SDS011;44236;48.098;11.582;2023-05-15T05:32:21;2.85;;;1.13;;
41643;SDS011;44236;48.098;11.582;2023-05-15T05:34:47;2.08;;;1.17;;
41643;SDS011;44236;48.098;11.582;2023-05-15T05:37:13;3.63;;;1.65;;
41643;SDS011;44236;48.098;11.582;2023-05-15T05:39:38;3.97;;;1.58;;
41643;SDS011;44236;48.098;11.582;2023-05-15T05:42:04;2.58;;;1.50;;
41643;SDS011;44236;48.098;11.582;2023-05-15T05:44:29;5.47;;;2.08;;
41643;SDS011;44236;48.098;11.582;2023-05-15T05:46:55;6.03;;;1.48;;
41643;SDS011;44236;48.098;11.582;2023-05-15T05:49:21;6.40;;;2.38;;
41643;SDS011;44236;48.098;11.582;2023-05-15T05:51:46;9.98;;;2.15;;
41643;SDS011;44236;48.098;11.582;2023-05-15T05:54:12;8.75;;;2.40;;
41643;SDS011;44236;48.098;11.582;2023-05-15T05:56:39;4.63;;;1.52;;
41643;SDS011;44236;48.098;11.582;2023-05-15T05:59:06;4.43;;;1.85;;
41643;SDS011;44236;48.098;11.582;2023-05-15T06:01:32;9.93;;;1.90;;
41643;SDS011;44236;48.098;11.582;2023-05-15T06:03:57;10.85;;;1.90;;
41643;SDS011;44236;48.098;11.582;2023-05-15T06:06:23;20.05;;;2.45;;
41643;SDS011;44236;48.098;11.582;2023-05-15T06:08:49;9.52;;;1.80;;
41643;SDS011;44236;48.098;11.582;2023-05-15T06:11:14;7.53;;;1.75;;
41643;SDS011;44236;48.098;11.582;2023-05-15T06:13:40;24.65;;;3.58;;
41643;SDS011;44236;48.098;11.582;2023-05-15T06:16:07;8.88;;;1.80;;
41643;SDS011;44236;48.098;11.582;2023-05-15T06:18:33;6.65;;;1.88;;
41643;SDS011;44236;48.098;11.582;2023-05-15T06:20:58;6.03;;;1.67;;
41643;SDS011;44236;48.098;11.582;2023-05-15T06:23:24;5.38;;;1.48;;
41643;SDS011;44236;48.098;11.582;2023-05-15T06:25:51;3.85;;;1.23;;
41643;SDS011;44236;48.098;11.582;2023-05-15T06:28:16;5.53;;;1.50;;
41643;SDS011;44236;48.098;11.582;2023-05-15T06:30:42;5.63;;;1.73;;
41643;SDS011;44236;48.098;11.582;2023-05-15T06:33:08;5.78;;;2.22;;
41643;SDS011;44236;48.098;11.582;2023-05-15T06:35:33;12.93;;;1.75;;
41643;SDS011;44236;48.098;11.582;2023-05-15T06:37:59;3.72;;;1.58;;
41643;SDS011;44236;48.098;11.582;2023-05-15T06:40:25;6.43;;;2.35;;
41643;SDS011;44236;48.098;11.582;2023-05-15T06:42:51;4.57;;;1.90;;
41643;SDS011;44236;48.098;11.582;2023-05-15T06:45:17;3.03;;;1.40;;
41643;SDS011;44236;48.098;11.582;2023-05-15T06:47:42;5.85;;;2.15;;
41643;SDS011;44236;48.098;11.582;2023-05-15T06:50:08;5.43;;;1.90;;
41643;SDS011;44236;48.098;11.582;2023-05-15T06:52:34;7.50;;;1.73;;
41643;SDS011;44236;48.098;11.582;2023-05-15T06:55:00;9.23;;;1.42;;
41643;SDS011;44236;48.098;11.582;2023-05-15T06:57:26;4.93;;;1.48;;
41643;SDS011;44236;48.098;11.582;2023-05-15T06:59:51;2.33;;;1.30;;
41643;SDS011;44236;48.098;11.582;2023-05-15T07:02:17;2.85;;;1.38;;
41643;SDS011;44236;48.098;11.582;2023-05-15T07:04:43;4.13;;;1.30;;
41643;SDS011;44236;48.098;11.582;2023-05-15T07:07:08;4.82;;;1.60;;
41643;SDS011;44236;48.098;11.582;2023-05-15T07:09:34;2.00;;;0.98;;
41643;SDS011;44236;48.098;11.582;2023-05-15T07:12:00;4.93;;;1.10;;
41643;SDS011;44236;48.098;11.582;2023-05-15T07:14:25;4.00;;;1.60;;
41643;SDS011;44236;48.098;11.582;2023-05-15T07:16:51;5.60;;;1.35;;
41643;SDS011;44236;48.098;11.582;2023-05-15T07:19:17;2.92;;;1.25;;
41643;SDS011;44236;48.098;11.582;2023-05-15T07:21:44;2.72;;;1.23;;
41643;SDS011;44236;48.098;11.582;2023-05-15T07:24:10;4.53;;;1.45;;
41643;SDS011;44236;48.098;11.582;2023-05-15T07:26:36;2.45;;;1.20;;
41643;SDS011;44236;48.098;11.582;2023-05-15T07:29:01;5.00;;;1.63;;
41643;SDS011;44236;48.098;11.582;2023-05-15T07:31:28;4.10;;;2.08;;
41643;SDS011;44236;48.098;11.582;2023-05-15T07:33:55;3.08;;;1.40;;
41643;SDS011;44236;48.098;11.582;2023-05-15T07:36:20;4.68;;;1.70;;
41643;SDS011;44236;48.098;11.582;2023-05-15T07:38:46;1.98;;;1.17;;
41643;SDS011;44236;48.098;11.582;2023-05-15T07:41:12;4.72;;;1.30;;
41643;SDS011;44236;48.098;11.582;2023-05-15T07:43:37;3.50;;;1.40;;
41643;SDS011;44236;48.098;11.582;2023-05-15T07:46:03;4.20;;;1.58;;
41643;SDS011;44236;48.098;11.582;2023-05-15T07:48:28;6.10;;;1.42;;
41643;SDS011;44236;48.098;11.582;2023-05-15T07:50:54;3.22;;;1.40;;
41643;SDS011;44236;48.098;11.582;2023-05-15T07:53:21;3.20;;;1.23;;
41643;SDS011;44236;48.098;11.582;2023-05-15T07:55:46;4.10;;;1.52;;
41643;SDS011;44236;48.098;11.582;2023-05-15T07:58:12;2.85;;;1.27;;
41643;SDS011;44236;48.098;11.582;2023-05-15T08:00:38;4.57;;;1.20;;
41643;SDS011;44236;48.098;11.582;2023-05-15T08:03:04;2.85;;;1.23;;
41643;SDS011;44236;48.098;11.582;2023-05-15T08:05:30;7.97;;;1.52;;
41643;SDS011;44236;48.098;11.582;2023-05-15T08:07:55;3.15;;;1.75;;
41643;SDS011;44236;48.098;11.582;2023-05-15T08:10:21;3.30;;;1.25;;
41643;SDS011;44236;48.098;11.582;2023-05-15T08:12:47;3.25;;;1.38;;
41643;SDS011;44236;48.098;11.582;2023-05-15T08:15:14;3.35;;;1.55;;
41643;SDS011;44236;48.098;11.582;2023-05-15T08:17:40;1.85;;;0.90;;
41643;SDS011;44236;48.098;11.582;2023-05-15T08:20:06;4.85;;;1.60;;
41643;SDS011;44236;48.098;11.582;2023-05-15T08:22:32;3.20;;;1.45;;
41643;SDS011;44236;48.098;11.582;2023-05-15T08:24:58;3.90;;;1.30;;
41643;SDS011;44236;48.098;11.582;2023-05-15T08:27:24;3.08;;;1.73;;
41643;SDS011;44236;48.098;11.582;2023-05-15T08:29:51;2.63;;;1.48;;
41643;SDS011;44236;48.098;11.582;2023-05-15T08:32:18;2.90;;;1.60;;
41643;SDS011;44236;48.098;11.582;2023-05-15T08:34:43;4.35;;;1.70;;
41643;SDS011;44236;48.098;11.582;2023-05-15T08:37:09;3.20;;;1.27;;
41643;SDS011;44236;48.098;11.582;2023-05-15T08:39:35;3.13;;;1.50;;
41643;SDS011;44236;48.098;11.582;2023-05-15T08:44:34;4.38;;;1.75;;
41643;SDS011;44236;48.098;11.582;2023-05-15T08:47:00;3.20;;;1.40;;
41643;SDS011;44236;48.098;11.582;2023-05-15T08:49:46;1.90;;;1.10;;
41643;SDS011;44236;48.098;11.582;2023-05-15T08:52:22;2.78;;;1.10;;
41643;SDS011;44236;48.098;11.582;2023-05-15T08:54:49;3.03;;;1.70;;
41643;SDS011;44236;48.098;11.582;2023-05-15T08:57:15;3.63;;;1.42;;
41643;SDS011;44236;48.098;11.582;2023-05-15T08:59:41;4.00;;;1.30;;
41643;SDS011;44236;48.098;11.582;2023-05-15T09:02:07;4.28;;;1.63;;
41643;SDS011;44236;48.098;11.582;2023-05-15T09:04:33;3.25;;;1.52;;
41643;SDS011;44236;48.098;11.582;2023-05-15T09:06:59;3.28;;;1.60;;
41643;SDS011;44236;48.098;11.582;2023-05-15T09:09:26;4.35;;;1.30;;
41643;SDS011;44236;48.098;11.582;2023-05-15T09:11:53;3.47;;;1.60;;
41643;SDS011;44236;48.098;11.582;2023-05-15T09:14:19;2.55;;;1.20;;
41643;SDS011;44236;48.098;11.582;2023-05-15T09:16:45;2.35;;;1.50;;
41643;SDS011;44236;48.098;11.582;2023-05-15T09:19:13;3.85;;;1.70;;
41643;SDS011;44236;48.098;11.582;2023-05-15T09:21:39;2.90;;;1.40;;
41643;SDS011;44236;48.098;11.582;2023-05-15T09:26:43;2.88;;;1.65;;
41643;SDS011;44236;48.098;11.582;2023-05-15T09:29:10;2.22;;;1.20;;
41643;SDS011;44236;48.098;11.582;2023-05-15T09:31:39;3.60;;;1.92;;
41643;SDS011;44236;48.098;11.582;2023-05-15T09:34:04;3.03;;;1.30;;
41643;SDS011;44236;48.098;11.582;2023-05-15T09:36:30;4.20;;;1.38;;
41643;SDS011;44236;48.098;11.582;2023-05-15T09:38:59;3.97;;;1.38;;
41643;SDS011;44236;48.098;11.582;2023-05-15T09:41:26;3.47;;;1.45;;
41643;SDS011;44236;48.098;11.582;2023-05-15T09:43:53;2.40;;;1.48;;
41643;SDS011;44236;48.098;11.582;2023-05-15T09:46:20;2.40;;;1.40;;
41643;SDS011;44236;48.098;11.582;2023-05-15T09:48:47;2.17;;;1.27;;
41643;SDS011;44236;48.098;11.582;2023-05-15T09:51:14;2.97;;;1.70;;
41643;SDS011;44236;48.098;11.582;2023-05-15T09:53:42;2.20;;;1.42;;
41643;SDS011;44236;48.098;11.582;2023-05-15T09:56:12;2.03;;;1.30;;
41643;SDS011;44236;48.098;11.582;2023-05-15T09:58:38;2.72;;;1.40;;
41643;SDS011;44236;48.098;11.582;2023-05-15T10:01:22;4.75;;;1.60;;
41643;SDS011;44236;48.098;11.582;2023-05-15T10:06:34;2.45;;;1.67;;
41643;SDS011;44236;48.098;11.582;2023-05-15T10:09:01;2.13;;;1.33;;
41643;SDS011;44236;48.098;11.582;2023-05-15T10:11:28;3.40;;;2.38;;
41643;SDS011;44236;48.098;11.582;2023-05-15T10:13:55;5.50;;;2.63;;
41643;SDS011;44236;48.098;11.582;2023-05-15T10:16:23;4.25;;;2.17;;
41643;SDS011;44236;48.098;11.582;2023-05-15T10:18:50;10.10;;;2.50;;
41643;SDS011;44236;48.098;11.582;2023-05-15T10:21:16;5.72;;;2.80;;
41643;SDS011;44236;48.098;11.582;2023-05-15T10:23:44;9.93;;;2.83;;
41643;SDS011;44236;48.098;11.582;2023-05-15T10:26:17;4.75;;;2.58;;
41643;SDS011;44236;48.098;11.582;2023-05-15T10:28:47;4.00;;;2.70;;
41643;SDS011;44236;48.098;11.582;2023-05-15T10:31:13;7.05;;;3.00;;
41643;SDS011;44236;48.098;11.582;2023-05-15T10:33:42;10.50;;;2.88;;
41643;SDS011;44236;48.098;11.582;2023-05-15T10:36:08;6.38;;;2.63;;
41643;SDS011;44236;48.098;11.582;2023-05-15T10:38:35;4.22;;;2.97;;
41643;SDS011;44236;48.098;11.582;2023-05-15T10:41:01;6.95;;;3.85;;
41643;SDS011;44236;48.098;11.582;2023-05-15T10:43:29;5.32;;;3.20;;
41643;SDS011;44236;48.098;11.582;2023-05-15T10:45:55;8.20;;;3.17;;
41643;SDS011;44236;48.098;11.582;2023-05-15T10:48:22;6.15;;;3.92;;
41643;SDS011;44236;48.098;11.582;2023-05-15T10:50:48;6.93;;;2.63;;
41643;SDS011;44236;48.098;11.582;2023-05-15T10:53:15;6.10;;;3.40;;
41643;SDS011;44236;48.098;11.582;2023-05-15T10:55:41;5.57;;;2.42;;
41643;SDS011;44236;48.098;11.582;2023-05-15T10:58:07;5.72;;;2.88;;
41643;SDS011;44236;48.098;11.582;2023-05-15T11:00:35;6.55;;;2.72;;
41643;SDS011;44236;48.098;11.582;2023-05-15T11:03:06;5.97;;;2.53;;
41643;SDS011;44236;48.098;11.582;2023-05-15T11:06:05;4.00;;;2.33;;
41643;SDS011;44236;48.098;11.582;2023-05-15T11:08:35;5.63;;;2.15;;
41643;SDS011;44236;48.098;11.582;2023-05-15T11:11:01;7.10;;;2.50;;
41643;SDS011;44236;48.098;11.582;2023-05-15T11:13:46;7.10;;;2.78;;
41643;SDS011;44236;48.098;11.582;2023-05-15T11:19:36;7.80;;;2.53;;
41643;SDS011;44236;48.098;11.582;2023-05-15T11:24:46;5.45;;;2.33;;
41643;SDS011;44236;48.098;11.582;2023-05-15T11:27:12;3.97;;;1.70;;
41643;SDS011;44236;48.098;11.582;2023-05-15T11:32:31;2.33;;;1.38;;
41643;SDS011;44236;48.098;11.582;2023-05-15T11:35:33;5.97;;;2.50;;
41643;SDS011;44236;48.098;11.582;2023-05-15T11:38:02;4.25;;;1.50;;
41643;SDS011;44236;48.098;11.582;2023-05-15T11:40:47;3.35;;;1.30;;
41643;SDS011;44236;48.098;11.582;2023-05-15T11:43:20;3.85;;;1.80;;
41643;SDS011;44236;48.098;11.582;2023-05-15T11:45:56;4.53;;;1.92;;
41643;SDS011;44236;48.098;11.582;2023-05-15T11:48:24;11.67;;;2.47;;
41643;SDS011;44236;48.098;11.582;2023-05-15T11:50:56;5.05;;;2.15;;
41643;SDS011;44236;48.098;11.582;2023-05-15T11:53:22;4.28;;;1.73;;
41643;SDS011;44236;48.098;11.582;2023-05-15T11:55:48;2.45;;;1.38;;
41643;SDS011;44236;48.098;11.582;2023-05-15T11:58:17;4.78;;;1.75;;
41643;SDS011;44236;48.098;11.582;2023-05-15T12:00:45;5.72;;;1.90;;
41643;SDS011;44236;48.098;11.582;2023-05-15T12:03:15;4.38;;;1.83;;
41643;SDS011;44236;48.098;11.582;2023-05-15T12:05:42;5.85;;;1.60;;
41643;SDS011;44236;48.098;11.582;2023-05-15T12:08:09;3.15;;;1.50;;
41643;SDS011;44236;48.098;11.582;2023-05-15T12:10:39;2.90;;;1.75;;
41643;SDS011;44236;48.098;11.582;2023-05-15T12:13:07;4.35;;;1.75;;
41643;SDS011;44236;48.098;11.582;2023-05-15T12:15:35;7.60;;;2.28;;
41643;SDS011;44236;48.098;11.582;2023-05-15T12:18:05;3.50;;;1.55;;
41643;SDS011;44236;48.098;11.582;2023-05-15T12:20:33;6.25;;;2.45;;
41643;SDS011;44236;48.098;11.582;2023-05-15T12:23:00;6.38;;;1.98;;
41643;SDS011;44236;48.098;11.582;2023-05-15T12:25:30;14.48;;;2.78;;
41643;SDS011;44236;48.098;11.582;2023-05-15T12:27:59;6.45;;;1.58;;
41643;SDS011;44236;48.098;11.582;2023-05-15T12:30:26;3.08;;;1.45;;
41643;SDS011;44236;48.098;11.582;2023-05-15T12:32:57;3.30;;;1.50;;
41643;SDS011;44236;48.098;11.582;2023-05-15T12:35:33;7.15;;;2.28;;
41643;SDS011;44236;48.098;11.582;2023-05-15T12:38:03;10.70;;;2.85;;
41643;SDS011;44236;48.098;11.582;2023-05-15T12:40:32;8.90;;;3.08;;
41643;SDS011;44236;48.098;11.582;2023-05-15T12:42:58;14.25;;;2.88;;
41643;SDS011;44236;48.098;11.582;2023-05-15T12:45:28;9.27;;;2.80;;
41643;SDS011;44236;48.098;11.582;2023-05-15T12:47:57;5.97;;;2.33;;
41643;SDS011;44236;48.098;11.582;2023-05-15T12:50:24;7.18;;;2.20;;
41643;SDS011;44236;48.098;11.582;2023-05-15T12:52:51;9.32;;;2.50;;
41643;SDS011;44236;48.098;11.582;2023-05-15T12:57:57;13.02;;;3.05;;
41643;SDS011;44236;48.098;11.582;2023-05-15T13:00:35;7.35;;;3.53;;
41643;SDS011;44236;48.098;11.582;2023-05-15T13:03:02;26.77;;;4.15;;
41643;SDS011;44236;48.098;11.582;2023-05-15T13:05:32;11.52;;;2.65;;
41643;SDS011;44236;48.098;11.582;2023-05-15T13:07:59;23.95;;;3.78;;
41643;SDS011;44236;48.098;11.582;2023-05-15T13:10:27;18.63;;;4.28;;
41643;SDS011;44236;48.098;11.582;2023-05-15T13:12:55;15.77;;;2.80;;
41643;SDS011;44236;48.098;11.582;2023-05-15T13:18:32;10.23;;;2.78;;
41643;SDS011;44236;48.098;11.582;2023-05-15T13:20:51;11.02;;;2.75;;
41643;SDS011;44236;48.098;11.582;2023-05-15T13:23:17;13.20;;;2.28;;
41643;SDS011;44236;48.098;11.582;2023-05-15T13:25:44;6.25;;;2.22;;
41643;SDS011;44236;48.098;11.582;2023-05-15T13:28:11;17.27;;;3.75;;
41643;SDS011;44236;48.098;11.582;2023-05-15T13:30:37;14.10;;;2.85;;
41643;SDS011;44236;48.098;11.582;2023-05-15T13:33:05;18.70;;;4.57;;
41643;SDS011;44236;48.098;11.582;2023-05-15T13:35:32;18.88;;;2.60;;
41643;SDS011;44236;48.098;11.582;2023-05-15T13:37:57;14.40;;;3.05;;
41643;SDS011;44236;48.098;11.582;2023-05-15T13:40:24;10.30;;;3.58;;
41643;SDS011;44236;48.098;11.582;2023-05-15T13:42:51;7.78;;;2.60;;
41643;SDS011;44236;48.098;11.582;2023-05-15T13:45:17;8.35;;;2.60;;
41643;SDS011;44236;48.098;11.582;2023-05-15T13:47:43;13.10;;;2.97;;
41643;SDS011;44236;48.098;11.582;2023-05-15T13:50:09;9.93;;;2.65;;
41643;SDS011;44236;48.098;11.582;2023-05-15T13:52:40;9.02;;;2.78;;
41643;SDS011;44236;48.098;11.582;2023-05-15T13:55:07;17.58;;;2.90;;
41643;SDS011;44236;48.098;11.582;2023-05-15T13:57:36;13.48;;;3.40;;
41643;SDS011;44236;48.098;11.582;2023-05-15T14:00:06;9.20;;;3.35;;
41643;SDS011;44236;48.098;11.582;2023-05-15T14:02:36;9.75;;;2.90;;
41643;SDS011;44236;48.098;11.582;2023-05-15T14:05:02;17.30;;;3.28;;
41643;SDS011;44236;48.098;11.582;2023-05-15T14:07:28;13.95;;;3.53;;
41643;SDS011;44236;48.098;11.582;2023-05-15T14:09:54;6.03;;;2.35;;
41643;SDS011;44236;48.098;11.582;2023-05-15T14:12:20;13.05;;;2.75;;
41643;SDS011;44236;48.098;11.582;2023-05-15T14:14:46;6.07;;;2.42;;
41643;SDS011;44236;48.098;11.582;2023-05-15T14:17:12;7.22;;;2.60;;
41643;SDS011;44236;48.098;11.582;2023-05-15T14:19:41;5.82;;;2.10;;
41643;SDS011;44236;48.098;11.582;2023-05-15T14:22:07;4.25;;;1.35;;
41643;SDS011;44236;48.098;11.582;2023-05-15T14:24:33;9.82;;;2.35;;
41643;SDS011;44236;48.098;11.582;2023-05-15T14:26:58;5.75;;;1.65;;
41643;SDS011;44236;48.098;11.582;2023-05-15T14:29:24;1.63;;;0.80;;
41643;SDS011;44236;48.098;11.582;2023-05-15T14:31:50;3.95;;;2.10;;
41643;SDS011;44236;48.098;11.582;2023-05-15T14:34:16;6.65;;;2.53;;
41643;SDS011;44236;48.098;11.582;2023-05-15T14:36:42;3.42;;;1.33;;
41643;SDS011;44236;48.098;11.582;2023-05-15T14:39:09;5.88;;;1.45;;
41643;SDS011;44236;48.098;11.582;2023-05-15T14:41:34;10.95;;;1.83;;
41643;SDS011;44236;48.098;11.582;2023-05-15T14:44:00;7.25;;;2.20;;
41643;SDS011;44236;48.098;11.582;2023-05-15T14:46:26;11.68;;;1.73;;
41643;SDS011;44236;48.098;11.582;2023-05-15T14:48:52;4.70;;;1.50;;
41643;SDS011;44236;48.098;11.582;2023-05-15T14:51:17;6.10;;;1.75;;
41643;SDS011;44236;48.098;11.582;2023-05-15T14:53:43;12.52;;;1.67;;
41643;SDS011;44236;48.098;11.582;2023-05-15T14:56:08;7.60;;;1.77;;
41643;SDS011;44236;48.098;11.582;2023-05-15T14:58:34;8.45;;;2.20;;
41643;SDS011;44236;48.098;11.582;2023-05-15T15:01:00;8.63;;;2.80;;
41643;SDS011;44236;48.098;11.582;2023-05-15T15:03:26;6.50;;;3.45;;
41643;SDS011;44236;48.098;11.582;2023-05-15T15:05:52;9.75;;;2.28;;
41643;SDS011;44236;48.098;11.582;2023-05-15T15:08:17;9.55;;;2.00;;